sensor_id;sensor_type;location;lat;lon;timestamp;temperature;humidity
57709;SHT35;42558;52.388;13.390;2023-08-17T00:01:14;20.25;77.78
57709;SHT35;42558;52.388;13.390;2023-08-17T00:03:44;20.23;77.81
57709;SHT35;42558;52.388;13.390;2023-08-17T00:06:14;20.23;77.76
57709;SHT35;42558;52.388;13.390;2023-08-17T00:08:44;20.23;77.75
57709;SHT35;42558;52.388;13.390;2023-08-17T00:11:14;20.19;77.80
57709;SHT35;42558;52.388;13.390;2023-08-17T00:13:44;20.19;77.74
57709;SHT35;42558;52.388;13.390;2023-08-17T00:16:14;20.17;77.90
57709;SHT35;42558;52.388;13.390;2023-08-17T00:18:44;20.12;77.96
57709;SHT35;42558;52.388;13.390;2023-08-17T00:21:14;20.07;77.97
57709;SHT35;42558;52.388;13.390;2023-08-17T00:23:43;20.05;78.06
57709;SHT35;42558;52.388;13.390;2023-08-17T00:26:13;19.98;78.29
57709;SHT35;42558;52.388;13.390;2023-08-17T00:28:43;19.95;78.41
57709;SHT35;42558;52.388;13.390;2023-08-17T00:31:13;19.92;78.51
57709;SHT35;42558;52.388;13.390;2023-08-17T00:33:43;19.88;78.65
57709;SHT35;42558;52.388;13.390;2023-08-17T00:36:13;19.84;78.90
57709;SHT35;42558;52.388;13.390;2023-08-17T00:38:43;19.80;79.01
57709;SHT35;42558;52.388;13.390;2023-08-17T00:41:13;19.77;79.13
57709;SHT35;42558;52.388;13.390;2023-08-17T00:43:43;19.71;79.29
57709;SHT35;42558;52.388;13.390;2023-08-17T00:46:13;19.68;79.33
57709;SHT35;42558;52.388;13.390;2023-08-17T00:48:43;19.67;79.17
57709;SHT35;42558;52.388;13.390;2023-08-17T00:51:13;19.66;79.05
57709;SHT35;42558;52.388;13.390;2023-08-17T00:53:44;19.66;79.12
57709;SHT35;42558;52.388;13.390;2023-08-17T00:56:14;19.61;79.20
57709;SHT35;42558;52.388;13.390;2023-08-17T00:58:44;19.58;79.38
57709;SHT35;42558;52.388;13.390;2023-08-17T01:01:14;19.57;79.28
57709;SHT35;42558;52.388;13.390;2023-08-17T01:03:44;19.56;79.34
57709;SHT35;42558;52.388;13.390;2023-08-17T01:06:15;19.53;79.42
57709;SHT35;42558;52.388;13.390;2023-08-17T01:08:44;19.54;79.48
57709;SHT35;42558;52.388;13.390;2023-08-17T01:14:04;19.48;79.52
57709;SHT35;42558;52.388;13.390;2023-08-17T01:17:06;19.41;79.76
57709;SHT35;42558;52.388;13.390;2023-08-17T01:19:49;19.37;80.01
57709;SHT35;42558;52.388;13.390;2023-08-17T01:22:21;19.35;80.07
57709;SHT35;42558;52.388;13.390;2023-08-17T01:24:54;19.33;80.19
57709;SHT35;42558;52.388;13.390;2023-08-17T01:27:32;19.28;80.33
57709;SHT35;42558;52.388;13.390;2023-08-17T01:30:08;19.26;80.42
57709;SHT35;42558;52.388;13.390;2023-08-17T01:35:46;19.20;80.61
57709;SHT35;42558;52.388;13.390;2023-08-17T01:38:20;19.14;80.71
57709;SHT35;42558;52.388;13.390;2023-08-17T01:40:53;19.14;80.68
57709;SHT35;42558;52.388;13.390;2023-08-17T01:43:24;19.13;80.70
57709;SHT35;42558;52.388;13.390;2023-08-17T01:45:56;19.12;80.73
57709;SHT35;42558;52.388;13.390;2023-08-17T01:48:26;19.09;80.72
57709;SHT35;42558;52.388;13.390;2023-08-17T01:50:56;19.09;80.62
57709;SHT35;42558;52.388;13.390;2023-08-17T01:53:26;19.08;80.60
57709;SHT35;42558;52.388;13.390;2023-08-17T01:55:56;19.04;80.72
57709;SHT35;42558;52.388;13.390;2023-08-17T01:58:25;19.01;80.75
57709;SHT35;42558;52.388;13.390;2023-08-17T02:00:55;19.01;80.72
57709;SHT35;42558;52.388;13.390;2023-08-17T02:03:25;18.99;80.81
57709;SHT35;42558;52.388;13.390;2023-08-17T02:05:56;18.96;80.88
57709;SHT35;42558;52.388;13.390;2023-08-17T02:08:28;18.95;80.88
57709;SHT35;42558;52.388;13.390;2023-08-17T02:10:58;18.90;80.99
57709;SHT35;42558;52.388;13.390;2023-08-17T02:13:28;18.86;80.99
57709;SHT35;42558;52.388;13.390;2023-08-17T02:15:56;18.81;81.14
57709;SHT35;42558;52.388;13.390;2023-08-17T02:18:25;18.77;81.29
57709;SHT35;42558;52.388;13.390;2023-08-17T02:20:53;18.74;81.25
57709;SHT35;42558;52.388;13.390;2023-08-17T02:23:22;18.73;81.31
57709;SHT35;42558;52.388;13.390;2023-08-17T02:25:50;18.71;81.40
57709;SHT35;42558;52.388;13.390;2023-08-17T02:28:18;18.67;81.43
57709;SHT35;42558;52.388;13.390;2023-08-17T02:30:47;18.65;81.49
57709;SHT35;42558;52.388;13.390;2023-08-17T02:33:15;18.62;81.56
57709;SHT35;42558;52.388;13.390;2023-08-17T02:35:47;18.62;81.47
57709;SHT35;42558;52.388;13.390;2023-08-17T02:38:18;18.62;81.36
57709;SHT35;42558;52.388;13.390;2023-08-17T02:40:49;18.60;81.38
57709;SHT35;42558;52.388;13.390;2023-08-17T02:43:19;18.57;81.42
57709;SHT35;42558;52.388;13.390;2023-08-17T02:45:49;18.55;81.54
57709;SHT35;42558;52.388;13.390;2023-08-17T02:48:19;18.51;81.61
57709;SHT35;42558;52.388;13.390;2023-08-17T02:50:49;18.49;81.70
57709;SHT35;42558;52.388;13.390;2023-08-17T02:53:19;18.50;81.67
57709;SHT35;42558;52.388;13.390;2023-08-17T02:55:48;18.48;81.68
57709;SHT35;42558;52.388;13.390;2023-08-17T02:58:18;18.49;81.73
57709;SHT35;42558;52.388;13.390;2023-08-17T03:00:50;18.47;81.71
57709;SHT35;42558;52.388;13.390;2023-08-17T03:03:21;18.42;81.78
57709;SHT35;42558;52.388;13.390;2023-08-17T03:05:51;18.40;81.76
57709;SHT35;42558;52.388;13.390;2023-08-17T03:08:21;18.42;81.61
57709;SHT35;42558;52.388;13.390;2023-08-17T03:10:51;18.41;81.55
57709;SHT35;42558;52.388;13.390;2023-08-17T03:13:21;18.41;81.52
57709;SHT35;42558;52.388;13.390;2023-08-17T03:15:51;18.42;81.47
57709;SHT35;42558;52.388;13.390;2023-08-17T03:18:20;18.42;81.35
57709;SHT35;42558;52.388;13.390;2023-08-17T03:20:50;18.43;81.17
57709;SHT35;42558;52.388;13.390;2023-08-17T03:23:23;18.43;81.14
57709;SHT35;42558;52.388;13.390;2023-08-17T03:25:53;18.44;80.99
57709;SHT35;42558;52.388;13.390;2023-08-17T03:28:23;18.44;80.88
57709;SHT35;42558;52.388;13.390;2023-08-17T03:30:55;18.44;80.84
57709;SHT35;42558;52.388;13.390;2023-08-17T03:33:26;18.42;80.88
57709;SHT35;42558;52.388;13.390;2023-08-17T03:35:55;18.40;80.83
57709;SHT35;42558;52.388;13.390;2023-08-17T03:38:25;18.40;80.86
57709;SHT35;42558;52.388;13.390;2023-08-17T03:40:55;18.38;81.02
57709;SHT35;42558;52.388;13.390;2023-08-17T03:43:25;18.37;80.86
57709;SHT35;42558;52.388;13.390;2023-08-17T03:45:53;18.35;80.90
57709;SHT35;42558;52.388;13.390;2023-08-17T03:48:22;18.35;80.82
57709;SHT35;42558;52.388;13.390;2023-08-17T03:50:51;18.37;80.76
57709;SHT35;42558;52.388;13.390;2023-08-17T03:53:22;18.37;80.72
57709;SHT35;42558;52.388;13.390;2023-08-17T03:55:50;18.40;80.45
57709;SHT35;42558;52.388;13.390;2023-08-17T03:58:19;18.41;80.40
57709;SHT35;42558;52.388;13.390;2023-08-17T04:00:50;18.41;80.24
57709;SHT35;42558;52.388;13.390;2023-08-17T04:03:21;18.43;80.14
57709;SHT35;42558;52.388;13.390;2023-08-17T04:05:51;18.43;80.05
57709;SHT35;42558;52.388;13.390;2023-08-17T04:08:21;18.45;80.00
57709;SHT35;42558;52.388;13.390;2023-08-17T04:10:51;18.47;79.94
57709;SHT35;42558;52.388;13.390;2023-08-17T04:13:20;18.46;79.80
57709;SHT35;42558;52.388;13.390;2023-08-17T04:15:52;18.48;79.69
57709;SHT35;42558;52.388;13.390;2023-08-17T04:18:22;18.48;79.60
57709;SHT35;42558;52.388;13.390;2023-08-17T04:20:52;18.51;79.53
57709;SHT35;42558;52.388;13.390;2023-08-17T04:23:24;18.52;79.39
57709;SHT35;42558;52.388;13.390;2023-08-17T04:25:53;18.54;79.26
57709;SHT35;42558;52.388;13.390;2023-08-17T04:28:24;18.57;79.19
57709;SHT35;42558;52.388;13.390;2023-08-17T04:30:54;18.59;79.11
57709;SHT35;42558;52.388;13.390;2023-08-17T04:33:24;18.62;78.75
57709;SHT35;42558;52.388;13.390;2023-08-17T04:35:54;18.66;78.47
57709;SHT35;42558;52.388;13.390;2023-08-17T04:38:25;18.68;78.41
57709;SHT35;42558;52.388;13.390;2023-08-17T04:40:55;18.71;78.39
57709;SHT35;42558;52.388;13.390;2023-08-17T04:43:24;18.73;78.26
57709;SHT35;42558;52.388;13.390;2023-08-17T04:45:54;18.73;78.03
57709;SHT35;42558;52.388;13.390;2023-08-17T04:48:24;18.75;77.83
57709;SHT35;42558;52.388;13.390;2023-08-17T04:50:54;18.77;77.61
57709;SHT35;42558;52.388;13.390;2023-08-17T04:53:24;18.80;77.70
57709;SHT35;42558;52.388;13.390;2023-08-17T04:55:54;18.85;77.61
57709;SHT35;42558;52.388;13.390;2023-08-17T04:58:24;18.86;77.17
57709;SHT35;42558;52.388;13.390;2023-08-17T05:00:54;18.92;77.08
57709;SHT35;42558;52.388;13.390;2023-08-17T05:03:23;18.96;76.91
57709;SHT35;42558;52.388;13.390;2023-08-17T05:06:00;18.97;76.67
57709;SHT35;42558;52.388;13.390;2023-08-17T05:08:30;19.05;76.91
57709;SHT35;42558;52.388;13.390;2023-08-17T05:11:00;19.09;76.63
57709;SHT35;42558;52.388;13.390;2023-08-17T05:13:28;19.12;76.37
57709;SHT35;42558;52.388;13.390;2023-08-17T05:15:57;19.21;76.38
57709;SHT35;42558;52.388;13.390;2023-08-17T05:18:25;19.29;76.07
57709;SHT35;42558;52.388;13.390;2023-08-17T05:20:53;19.34;75.89
57709;SHT35;42558;52.388;13.390;2023-08-17T05:23:22;19.44;75.66
57709;SHT35;42558;52.388;13.390;2023-08-17T05:25:50;19.45;75.20
57709;SHT35;42558;52.388;13.390;2023-08-17T05:28:19;19.53;74.92
57709;SHT35;42558;52.388;13.390;2023-08-17T05:30:48;19.58;74.94
57709;SHT35;42558;52.388;13.390;2023-08-17T05:33:19;19.55;74.72
57709;SHT35;42558;52.388;13.390;2023-08-17T05:35:52;19.57;74.83
57709;SHT35;42558;52.388;13.390;2023-08-17T05:38:24;19.59;74.76
57709;SHT35;42558;52.388;13.390;2023-08-17T05:40:57;19.64;74.97
57709;SHT35;42558;52.388;13.390;2023-08-17T05:43:28;19.61;74.59
57709;SHT35;42558;52.388;13.390;2023-08-17T05:45:58;19.51;74.29
57709;SHT35;42558;52.388;13.390;2023-08-17T05:48:40;19.56;74.88
57709;SHT35;42558;52.388;13.390;2023-08-17T05:51:10;19.58;75.32
57709;SHT35;42558;52.388;13.390;2023-08-17T05:53:40;19.57;75.00
57709;SHT35;42558;52.388;13.390;2023-08-17T05:56:10;19.55;75.88
57709;SHT35;42558;52.388;13.390;2023-08-17T05:58:40;19.53;76.45
57709;SHT35;42558;52.388;13.390;2023-08-17T06:01:11;19.49;76.56
57709;SHT35;42558;52.388;13.390;2023-08-17T06:03:39;19.48;76.47
57709;SHT35;42558;52.388;13.390;2023-08-17T06:06:09;19.48;76.64
57709;SHT35;42558;52.388;13.390;2023-08-17T06:08:39;19.53;76.77
57709;SHT35;42558;52.388;13.390;2023-08-17T06:11:09;19.61;77.04
57709;SHT35;42558;52.388;13.390;2023-08-17T06:13:39;19.68;77.28
57709;SHT35;42558;52.388;13.390;2023-08-17T06:16:08;19.75;77.65
57709;SHT35;42558;52.388;13.390;2023-08-17T06:18:39;19.75;77.22
57709;SHT35;42558;52.388;13.390;2023-08-17T06:21:10;19.74;77.21
57709;SHT35;42558;52.388;13.390;2023-08-17T06:23:40;19.76;77.38
57709;SHT35;42558;52.388;13.390;2023-08-17T06:26:09;19.81;77.16
57709;SHT35;42558;52.388;13.390;2023-08-17T06:28:39;19.86;76.83
57709;SHT35;42558;52.388;13.390;2023-08-17T06:31:09;19.90;76.34
57709;SHT35;42558;52.388;13.390;2023-08-17T06:33:39;19.92;76.34
57709;SHT35;42558;52.388;13.390;2023-08-17T06:36:09;19.96;76.34
57709;SHT35;42558;52.388;13.390;2023-08-17T06:38:42;20.08;76.43
57709;SHT35;42558;52.388;13.390;2023-08-17T06:41:12;20.17;76.10
57709;SHT35;42558;52.388;13.390;2023-08-17T06:43:42;20.14;75.51
57709;SHT35;42558;52.388;13.390;2023-08-17T06:46:12;20.24;75.54
57709;SHT35;42558;52.388;13.390;2023-08-17T06:48:42;20.41;74.75
57709;SHT35;42558;52.388;13.390;2023-08-17T06:51:13;20.61;73.64
57709;SHT35;42558;52.388;13.390;2023-08-17T06:53:43;20.93;72.89
57709;SHT35;42558;52.388;13.390;2023-08-17T06:56:13;20.84;71.75
57709;SHT35;42558;52.388;13.390;2023-08-17T06:58:43;20.89;71.97
57709;SHT35;42558;52.388;13.390;2023-08-17T07:01:13;20.92;72.08
57709;SHT35;42558;52.388;13.390;2023-08-17T07:03:41;20.94;72.36
57709;SHT35;42558;52.388;13.390;2023-08-17T07:06:09;21.06;71.91
57709;SHT35;42558;52.388;13.390;2023-08-17T07:08:38;21.16;72.01
57709;SHT35;42558;52.388;13.390;2023-08-17T07:11:06;21.14;71.68
57709;SHT35;42558;52.388;13.390;2023-08-17T07:13:35;21.18;72.03
57709;SHT35;42558;52.388;13.390;2023-08-17T07:16:03;21.17;71.70
57709;SHT35;42558;52.388;13.390;2023-08-17T07:18:31;20.98;71.72
57709;SHT35;42558;52.388;13.390;2023-08-17T07:21:00;20.88;72.26
57709;SHT35;42558;52.388;13.390;2023-08-17T07:23:28;20.80;72.53
57709;SHT35;42558;52.388;13.390;2023-08-17T07:25:57;20.83;72.90
57709;SHT35;42558;52.388;13.390;2023-08-17T07:28:25;20.84;72.86
57709;SHT35;42558;52.388;13.390;2023-08-17T07:30:54;20.92;72.92
57709;SHT35;42558;52.388;13.390;2023-08-17T07:33:22;21.03;72.96
57709;SHT35;42558;52.388;13.390;2023-08-17T07:35:50;21.16;72.92
57709;SHT35;42558;52.388;13.390;2023-08-17T07:38:22;21.29;72.58
57709;SHT35;42558;52.388;13.390;2023-08-17T07:40:50;21.52;72.33
57709;SHT35;42558;52.388;13.390;2023-08-17T07:43:19;21.74;71.88
57709;SHT35;42558;52.388;13.390;2023-08-17T07:45:56;21.76;70.74
57709;SHT35;42558;52.388;13.390;2023-08-17T07:48:27;21.85;70.08
57709;SHT35;42558;52.388;13.390;2023-08-17T07:50:57;22.12;69.76
57709;SHT35;42558;52.388;13.390;2023-08-17T07:53:27;22.53;68.22
57709;SHT35;42558;52.388;13.390;2023-08-17T07:55:57;22.64;68.47
57709;SHT35;42558;52.388;13.390;2023-08-17T07:58:27;22.48;67.99
57709;SHT35;42558;52.388;13.390;2023-08-17T08:00:57;22.61;67.81
57709;SHT35;42558;52.388;13.390;2023-08-17T08:03:27;23.04;66.51
57709;SHT35;42558;52.388;13.390;2023-08-17T08:05:56;23.46;67.51
57709;SHT35;42558;52.388;13.390;2023-08-17T08:08:26;24.12;64.69
57709;SHT35;42558;52.388;13.390;2023-08-17T08:10:56;23.73;63.87
57709;SHT35;42558;52.388;13.390;2023-08-17T08:13:26;23.15;66.13
57709;SHT35;42558;52.388;13.390;2023-08-17T08:15:56;23.07;65.98
57709;SHT35;42558;52.388;13.390;2023-08-17T08:18:28;22.76;66.80
57709;SHT35;42558;52.388;13.390;2023-08-17T08:20:58;22.89;66.89
57709;SHT35;42558;52.388;13.390;2023-08-17T08:23:28;22.91;66.86
57709;SHT35;42558;52.388;13.390;2023-08-17T08:25:59;22.73;66.86
57709;SHT35;42558;52.388;13.390;2023-08-17T08:28:29;22.69;67.33
57709;SHT35;42558;52.388;13.390;2023-08-17T08:31:02;22.37;67.05
57709;SHT35;42558;52.388;13.390;2023-08-17T08:33:33;22.15;68.75
57709;SHT35;42558;52.388;13.390;2023-08-17T08:36:03;22.42;68.51
57709;SHT35;42558;52.388;13.390;2023-08-17T08:38:35;22.50;68.32
57709;SHT35;42558;52.388;13.390;2023-08-17T08:41:05;22.41;68.47
57709;SHT35;42558;52.388;13.390;2023-08-17T08:43:38;22.01;69.09
57709;SHT35;42558;52.388;13.390;2023-08-17T08:46:08;21.84;69.94
57709;SHT35;42558;52.388;13.390;2023-08-17T08:48:37;21.56;70.80
57709;SHT35;42558;52.388;13.390;2023-08-17T08:51:08;21.51;71.01
57709;SHT35;42558;52.388;13.390;2023-08-17T08:53:47;21.48;71.30
57709;SHT35;42558;52.388;13.390;2023-08-17T08:56:29;21.65;71.45
57709;SHT35;42558;52.388;13.390;2023-08-17T08:59:04;21.61;71.05
57709;SHT35;42558;52.388;13.390;2023-08-17T09:01:36;21.68;71.28
57709;SHT35;42558;52.388;13.390;2023-08-17T09:04:07;21.75;70.69
57709;SHT35;42558;52.388;13.390;2023-08-17T09:06:37;21.68;71.16
57709;SHT35;42558;52.388;13.390;2023-08-17T09:09:09;21.85;70.92
57709;SHT35;42558;52.388;13.390;2023-08-17T09:11:44;22.17;70.67
57709;SHT35;42558;52.388;13.390;2023-08-17T09:14:14;22.64;70.05
57709;SHT35;42558;52.388;13.390;2023-08-17T09:16:44;22.76;68.90
57709;SHT35;42558;52.388;13.390;2023-08-17T09:19:14;22.69;69.42
57709;SHT35;42558;52.388;13.390;2023-08-17T09:21:44;22.35;70.16
57709;SHT35;42558;52.388;13.390;2023-08-17T09:24:18;22.34;70.80
57709;SHT35;42558;52.388;13.390;2023-08-17T09:26:45;22.78;70.80
57709;SHT35;42558;52.388;13.390;2023-08-17T09:29:18;22.79;69.66
57709;SHT35;42558;52.388;13.390;2023-08-17T09:31:49;23.15;69.63
57709;SHT35;42558;52.388;13.390;2023-08-17T09:34:17;23.32;68.70
57709;SHT35;42558;52.388;13.390;2023-08-17T09:36:48;23.18;69.23
57709;SHT35;42558;52.388;13.390;2023-08-17T09:39:17;23.32;68.54
57709;SHT35;42558;52.388;13.390;2023-08-17T09:41:48;23.20;68.83
57709;SHT35;42558;52.388;13.390;2023-08-17T09:44:18;23.15;68.60
57709;SHT35;42558;52.388;13.390;2023-08-17T09:46:48;22.72;69.36
57709;SHT35;42558;52.388;13.390;2023-08-17T09:49:18;22.60;69.72
57709;SHT35;42558;52.388;13.390;2023-08-17T09:51:48;22.71;69.56
57709;SHT35;42558;52.388;13.390;2023-08-17T09:54:22;22.82;69.87
57709;SHT35;42558;52.388;13.390;2023-08-17T09:56:57;22.73;69.71
57709;SHT35;42558;52.388;13.390;2023-08-17T09:59:28;22.76;69.47
57709;SHT35;42558;52.388;13.390;2023-08-17T10:01:58;22.64;69.86
57709;SHT35;42558;52.388;13.390;2023-08-17T10:04:29;22.40;70.15
57709;SHT35;42558;52.388;13.390;2023-08-17T10:07:05;22.46;70.76
57709;SHT35;42558;52.388;13.390;2023-08-17T10:09:39;22.48;70.33
57709;SHT35;42558;52.388;13.390;2023-08-17T10:12:18;22.57;70.27
57709;SHT35;42558;52.388;13.390;2023-08-17T10:14:53;22.80;69.98
57709;SHT35;42558;52.388;13.390;2023-08-17T10:17:35;22.85;69.31
57709;SHT35;42558;52.388;13.390;2023-08-17T10:20:21;23.28;68.87
57709;SHT35;42558;52.388;13.390;2023-08-17T10:23:00;24.00;67.74
57709;SHT35;42558;52.388;13.390;2023-08-17T10:25:36;24.74;66.00
57709;SHT35;42558;52.388;13.390;2023-08-17T10:28:11;25.38;64.00
57709;SHT35;42558;52.388;13.390;2023-08-17T10:30:41;25.47;63.50
57709;SHT35;42558;52.388;13.390;2023-08-17T10:33:13;24.79;64.60
57709;SHT35;42558;52.388;13.390;2023-08-17T10:35:44;24.30;65.48
57709;SHT35;42558;52.388;13.390;2023-08-17T10:38:16;24.07;66.99
57709;SHT35;42558;52.388;13.390;2023-08-17T10:40:47;24.30;67.28
57709;SHT35;42558;52.388;13.390;2023-08-17T10:43:55;24.28;65.89
57709;SHT35;42558;52.388;13.390;2023-08-17T10:46:32;23.90;67.86
57709;SHT35;42558;52.388;13.390;2023-08-17T10:49:23;23.91;68.33
57709;SHT35;42558;52.388;13.390;2023-08-17T10:52:02;24.15;67.88
57709;SHT35;42558;52.388;13.390;2023-08-17T10:54:37;24.68;66.88
57709;SHT35;42558;52.388;13.390;2023-08-17T11:00:24;24.46;67.27
57709;SHT35;42558;52.388;13.390;2023-08-17T11:03:04;24.64;67.24
57709;SHT35;42558;52.388;13.390;2023-08-17T11:05:48;25.08;66.03
57709;SHT35;42558;52.388;13.390;2023-08-17T11:08:33;24.71;66.27
57709;SHT35;42558;52.388;13.390;2023-08-17T11:11:14;24.46;67.59
57709;SHT35;42558;52.388;13.390;2023-08-17T11:13:45;24.51;67.88
57709;SHT35;42558;52.388;13.390;2023-08-17T11:16:17;24.66;67.28
57709;SHT35;42558;52.388;13.390;2023-08-17T11:18:50;24.52;67.89
57709;SHT35;42558;52.388;13.390;2023-08-17T11:21:21;24.34;67.57
57709;SHT35;42558;52.388;13.390;2023-08-17T11:23:51;24.23;68.11
57709;SHT35;42558;52.388;13.390;2023-08-17T11:26:26;24.49;67.78
57709;SHT35;42558;52.388;13.390;2023-08-17T11:28:56;24.68;66.93
57709;SHT35;42558;52.388;13.390;2023-08-17T11:31:26;24.76;67.50
57709;SHT35;42558;52.388;13.390;2023-08-17T11:33:57;24.84;67.31
57709;SHT35;42558;52.388;13.390;2023-08-17T11:36:28;24.99;67.36
57709;SHT35;42558;52.388;13.390;2023-08-17T11:38:58;25.32;66.56
57709;SHT35;42558;52.388;13.390;2023-08-17T11:41:28;25.64;65.28
57709;SHT35;42558;52.388;13.390;2023-08-17T11:43:57;25.11;65.16
57709;SHT35;42558;52.388;13.390;2023-08-17T11:46:28;24.83;66.05
57709;SHT35;42558;52.388;13.390;2023-08-17T11:48:59;24.94;65.92
57709;SHT35;42558;52.388;13.390;2023-08-17T11:51:33;24.74;66.04
57709;SHT35;42558;52.388;13.390;2023-08-17T11:54:03;24.98;66.75
57709;SHT35;42558;52.388;13.390;2023-08-17T11:56:37;25.31;65.59
57709;SHT35;42558;52.388;13.390;2023-08-17T11:59:10;25.21;66.34
57709;SHT35;42558;52.388;13.390;2023-08-17T12:01:48;25.34;65.53
57709;SHT35;42558;52.388;13.390;2023-08-17T12:04:20;25.44;65.49
57709;SHT35;42558;52.388;13.390;2023-08-17T12:06:50;25.58;65.09
57709;SHT35;42558;52.388;13.390;2023-08-17T12:09:18;25.43;65.41
57709;SHT35;42558;52.388;13.390;2023-08-17T12:11:46;25.45;66.30
57709;SHT35;42558;52.388;13.390;2023-08-17T12:14:15;25.81;66.52
57709;SHT35;42558;52.388;13.390;2023-08-17T12:16:47;25.82;64.63
57709;SHT35;42558;52.388;13.390;2023-08-17T12:19:21;25.69;64.92
57709;SHT35;42558;52.388;13.390;2023-08-17T12:21:54;25.43;65.11
57709;SHT35;42558;52.388;13.390;2023-08-17T12:24:27;25.50;65.65
57709;SHT35;42558;52.388;13.390;2023-08-17T12:26:57;25.84;65.44
57709;SHT35;42558;52.388;13.390;2023-08-17T12:29:28;25.99;64.88
57709;SHT35;42558;52.388;13.390;2023-08-17T12:31:58;25.93;63.96
57709;SHT35;42558;52.388;13.390;2023-08-17T12:34:31;25.76;64.38
57709;SHT35;42558;52.388;13.390;2023-08-17T12:37:00;25.74;65.37
57709;SHT35;42558;52.388;13.390;2023-08-17T12:39:30;25.72;65.12
57709;SHT35;42558;52.388;13.390;2023-08-17T12:42:00;25.81;64.23
57709;SHT35;42558;52.388;13.390;2023-08-17T12:44:31;25.91;64.98
57709;SHT35;42558;52.388;13.390;2023-08-17T12:47:01;25.76;64.93
57709;SHT35;42558;52.388;13.390;2023-08-17T12:49:31;25.65;64.11
57709;SHT35;42558;52.388;13.390;2023-08-17T12:52:01;25.66;64.72
57709;SHT35;42558;52.388;13.390;2023-08-17T12:54:30;25.91;64.65
57709;SHT35;42558;52.388;13.390;2023-08-17T12:57:01;26.22;65.04
57709;SHT35;42558;52.388;13.390;2023-08-17T12:59:34;26.23;63.20
57709;SHT35;42558;52.388;13.390;2023-08-17T13:02:02;25.94;63.65
57709;SHT35;42558;52.388;13.390;2023-08-17T13:04:32;26.22;64.32
57709;SHT35;42558;52.388;13.390;2023-08-17T13:07:02;26.31;63.11
57709;SHT35;42558;52.388;13.390;2023-08-17T13:09:32;26.07;63.91
57709;SHT35;42558;52.388;13.390;2023-08-17T13:12:02;25.93;63.48
57709;SHT35;42558;52.388;13.390;2023-08-17T13:14:32;25.77;63.83
57709;SHT35;42558;52.388;13.390;2023-08-17T13:17:02;25.70;64.69
57709;SHT35;42558;52.388;13.390;2023-08-17T13:19:30;25.81;65.12
57709;SHT35;42558;52.388;13.390;2023-08-17T13:21:59;25.88;64.99
57709;SHT35;42558;52.388;13.390;2023-08-17T13:24:27;25.79;64.29
57709;SHT35;42558;52.388;13.390;2023-08-17T13:26:55;25.88;64.22
57709;SHT35;42558;52.388;13.390;2023-08-17T13:29:24;26.05;64.59
57709;SHT35;42558;52.388;13.390;2023-08-17T13:31:52;25.95;64.33
57709;SHT35;42558;52.388;13.390;2023-08-17T13:34:21;26.11;64.45
57709;SHT35;42558;52.388;13.390;2023-08-17T13:36:49;26.16;63.56
57709;SHT35;42558;52.388;13.390;2023-08-17T13:39:18;26.05;63.64
57709;SHT35;42558;52.388;13.390;2023-08-17T13:41:46;26.16;63.71
57709;SHT35;42558;52.388;13.390;2023-08-17T13:44:14;26.49;63.17
57709;SHT35;42558;52.388;13.390;2023-08-17T13:46:43;26.67;62.79
57709;SHT35;42558;52.388;13.390;2023-08-17T13:49:11;26.33;62.60
57709;SHT35;42558;52.388;13.390;2023-08-17T13:51:39;26.40;62.85
57709;SHT35;42558;52.388;13.390;2023-08-17T13:54:08;26.53;62.86
57709;SHT35;42558;52.388;13.390;2023-08-17T13:56:36;26.55;63.23
57709;SHT35;42558;52.388;13.390;2023-08-17T13:59:05;26.79;63.60
57709;SHT35;42558;52.388;13.390;2023-08-17T14:01:33;26.66;63.73
57709;SHT35;42558;52.388;13.390;2023-08-17T14:04:02;26.53;64.08
57709;SHT35;42558;52.388;13.390;2023-08-17T14:06:33;26.63;64.66
57709;SHT35;42558;52.388;13.390;2023-08-17T14:09:01;26.82;63.75
57709;SHT35;42558;52.388;13.390;2023-08-17T14:11:30;27.11;63.35
57709;SHT35;42558;52.388;13.390;2023-08-17T14:13:58;27.31;61.87
57709;SHT35;42558;52.388;13.390;2023-08-17T14:16:27;27.62;62.39
57709;SHT35;42558;52.388;13.390;2023-08-17T14:18:55;27.97;61.34
57709;SHT35;42558;52.388;13.390;2023-08-17T14:21:23;27.43;60.84
57709;SHT35;42558;52.388;13.390;2023-08-17T14:23:52;26.74;62.19
57709;SHT35;42558;52.388;13.390;2023-08-17T14:26:20;26.76;63.75
57709;SHT35;42558;52.388;13.390;2023-08-17T14:28:49;26.78;63.11
57709;SHT35;42558;52.388;13.390;2023-08-17T14:31:17;26.70;63.97
57709;SHT35;42558;52.388;13.390;2023-08-17T14:33:46;26.60;63.60
57709;SHT35;42558;52.388;13.390;2023-08-17T14:36:14;26.72;63.62
57709;SHT35;42558;52.388;13.390;2023-08-17T14:38:49;27.03;62.69
57709;SHT35;42558;52.388;13.390;2023-08-17T14:41:18;27.11;61.99
57709;SHT35;42558;52.388;13.390;2023-08-17T14:43:48;27.25;61.85
57709;SHT35;42558;52.388;13.390;2023-08-17T14:46:18;27.51;60.42
57709;SHT35;42558;52.388;13.390;2023-08-17T14:48:48;27.85;60.81
57709;SHT35;42558;52.388;13.390;2023-08-17T14:51:18;28.09;60.53
57709;SHT35;42558;52.388;13.390;2023-08-17T14:53:48;28.52;59.84
57709;SHT35;42558;52.388;13.390;2023-08-17T14:56:18;28.16;58.37
57709;SHT35;42558;52.388;13.390;2023-08-17T14:58:48;27.65;60.17
57709;SHT35;42558;52.388;13.390;2023-08-17T15:01:17;27.91;61.30
57709;SHT35;42558;52.388;13.390;2023-08-17T15:03:48;28.05;60.87
57709;SHT35;42558;52.388;13.390;2023-08-17T15:06:17;28.08;60.44
57709;SHT35;42558;52.388;13.390;2023-08-17T15:09:02;28.19;59.63
57709;SHT35;42558;52.388;13.390;2023-08-17T15:11:32;28.54;59.21
57709;SHT35;42558;52.388;13.390;2023-08-17T15:14:02;28.85;59.61
57709;SHT35;42558;52.388;13.390;2023-08-17T15:16:32;28.81;58.27
57709;SHT35;42558;52.388;13.390;2023-08-17T15:19:02;28.52;58.60
57709;SHT35;42558;52.388;13.390;2023-08-17T15:21:32;28.09;58.97
57709;SHT35;42558;52.388;13.390;2023-08-17T15:24:02;27.64;60.99
57709;SHT35;42558;52.388;13.390;2023-08-17T15:26:32;27.45;61.23
57709;SHT35;42558;52.388;13.390;2023-08-17T15:29:02;27.48;61.87
57709;SHT35;42558;52.388;13.390;2023-08-17T15:31:31;27.57;61.71
57709;SHT35;42558;52.388;13.390;2023-08-17T15:33:59;27.62;61.77
57709;SHT35;42558;52.388;13.390;2023-08-17T15:36:27;27.64;61.28
57709;SHT35;42558;52.388;13.390;2023-08-17T15:38:56;27.77;61.11
57709;SHT35;42558;52.388;13.390;2023-08-17T15:41:24;27.88;60.28
57709;SHT35;42558;52.388;13.390;2023-08-17T15:43:53;27.77;60.99
57709;SHT35;42558;52.388;13.390;2023-08-17T15:46:21;27.81;60.15